sensor_id;sensor_type;location;lat;lon;timestamp;temperature;humidity
16964;DHT22;8598;50.508;10.436;2023-02-24T00:01:52;6.90;99.90
16964;DHT22;8598;50.508;10.436;2023-02-24T00:04:25;6.90;99.90
16964;DHT22;8598;50.508;10.436;2023-02-24T00:06:52;6.90;99.90
16964;DHT22;8598;50.508;10.436;2023-02-24T00:09:21;6.90;99.90
16964;DHT22;8598;50.508;10.436;2023-02-24T00:11:52;6.90;99.90
16964;DHT22;8598;50.508;10.436;2023-02-24T00:14:20;6.90;99.90
16964;DHT22;8598;50.508;10.436;2023-02-24T00:16:47;6.90;99.90
16964;DHT22;8598;50.508;10.436;2023-02-24T00:19:15;6.90;99.90
16964;DHT22;8598;50.508;10.436;2023-02-24T00:21:43;6.90;99.90
16964;DHT22;8598;50.508;10.436;2023-02-24T00:24:11;6.80;99.90
16964;DHT22;8598;50.508;10.436;2023-02-24T00:26:39;6.80;99.90
16964;DHT22;8598;50.508;10.436;2023-02-24T00:29:08;6.80;99.90
16964;DHT22;8598;50.508;10.436;2023-02-24T00:31:35;6.80;99.90
16964;DHT22;8598;50.508;10.436;2023-02-24T00:34:04;6.80;99.90
16964;DHT22;8598;50.508;10.436;2023-02-24T00:36:32;6.80;99.90
16964;DHT22;8598;50.508;10.436;2023-02-24T00:39:01;6.80;99.90
16964;DHT22;8598;50.508;10.436;2023-02-24T00:41:34;6.80;99.90
16964;DHT22;8598;50.508;10.436;2023-02-24T00:44:04;6.80;99.90
16964;DHT22;8598;50.508;10.436;2023-02-24T00:46:34;6.80;99.90
16964;DHT22;8598;50.508;10.436;2023-02-24T00:49:02;6.80;99.90
16964;DHT22;8598;50.508;10.436;2023-02-24T00:51:33;6.70;99.90
16964;DHT22;8598;50.508;10.436;2023-02-24T00:54:00;6.70;99.90
16964;DHT22;8598;50.508;10.436;2023-02-24T00:56:28;6.70;99.90
16964;DHT22;8598;50.508;10.436;2023-02-24T00:58:56;6.60;99.90
16964;DHT22;8598;50.508;10.436;2023-02-24T01:01:27;6.60;99.90
16964;DHT22;8598;50.508;10.436;2023-02-24T01:03:55;6.60;99.90
16964;DHT22;8598;50.508;10.436;2023-02-24T01:06:25;6.60;99.90
16964;DHT22;8598;50.508;10.436;2023-02-24T01:08:53;6.60;99.90
16964;DHT22;8598;50.508;10.436;2023-02-24T01:11:23;6.60;99.90
16964;DHT22;8598;50.508;10.436;2023-02-24T01:14:11;6.60;99.90
16964;DHT22;8598;50.508;10.436;2023-02-24T01:16:40;6.50;99.90
16964;DHT22;8598;50.508;10.436;2023-02-24T01:19:10;6.50;99.90
16964;DHT22;8598;50.508;10.436;2023-02-24T01:21:36;6.50;99.90
16964;DHT22;8598;50.508;10.436;2023-02-24T01:24:04;6.50;99.90
16964;DHT22;8598;50.508;10.436;2023-02-24T01:26:31;6.50;99.90
16964;DHT22;8598;50.508;10.436;2023-02-24T01:28:58;6.50;99.90
16964;DHT22;8598;50.508;10.436;2023-02-24T01:31:24;6.50;99.90
16964;DHT22;8598;50.508;10.436;2023-02-24T01:33:54;6.40;99.90
16964;DHT22;8598;50.508;10.436;2023-02-24T01:36:22;6.40;99.90
16964;DHT22;8598;50.508;10.436;2023-02-24T01:38:50;6.40;99.90
16964;DHT22;8598;50.508;10.436;2023-02-24T01:41:19;6.40;99.90
16964;DHT22;8598;50.508;10.436;2023-02-24T01:43:58;6.40;99.90
16964;DHT22;8598;50.508;10.436;2023-02-24T01:46:27;6.30;99.90
16964;DHT22;8598;50.508;10.436;2023-02-24T01:48:57;6.30;99.90
16964;DHT22;8598;50.508;10.436;2023-02-24T01:51:25;6.30;99.90
16964;DHT22;8598;50.508;10.436;2023-02-24T01:53:54;6.30;99.90
16964;DHT22;8598;50.508;10.436;2023-02-24T01:56:21;6.20;99.90
16964;DHT22;8598;50.508;10.436;2023-02-24T01:58:47;6.20;99.90
16964;DHT22;8598;50.508;10.436;2023-02-24T02:01:16;6.20;99.90
16964;DHT22;8598;50.508;10.436;2023-02-24T02:03:45;6.20;99.90
16964;DHT22;8598;50.508;10.436;2023-02-24T02:06:14;6.20;99.90
16964;DHT22;8598;50.508;10.436;2023-02-24T02:08:43;6.20;99.90
16964;DHT22;8598;50.508;10.436;2023-02-24T02:11:11;6.20;99.90
16964;DHT22;8598;50.508;10.436;2023-02-24T02:13:41;6.10;99.90
16964;DHT22;8598;50.508;10.436;2023-02-24T02:16:20;6.10;99.90
16964;DHT22;8598;50.508;10.436;2023-02-24T02:18:55;6.10;99.90
16964;DHT22;8598;50.508;10.436;2023-02-24T02:21:46;6.10;99.90
16964;DHT22;8598;50.508;10.436;2023-02-24T02:24:33;6.10;99.90
16964;DHT22;8598;50.508;10.436;2023-02-24T02:27:19;6.10;99.90
16964;DHT22;8598;50.508;10.436;2023-02-24T02:30:00;6.10;99.90
16964;DHT22;8598;50.508;10.436;2023-02-24T02:35:34;6.10;99.90
16964;DHT22;8598;50.508;10.436;2023-02-24T02:38:09;6.10;99.90
16964;DHT22;8598;50.508;10.436;2023-02-24T02:40:42;6.00;99.90
16964;DHT22;8598;50.508;10.436;2023-02-24T02:43:14;6.00;99.90
16964;DHT22;8598;50.508;10.436;2023-02-24T02:45:49;6.10;99.90
16964;DHT22;8598;50.508;10.436;2023-02-24T02:48:25;6.10;99.90
16964;DHT22;8598;50.508;10.436;2023-02-24T02:50:57;6.10;99.90
16964;DHT22;8598;50.508;10.436;2023-02-24T02:53:32;6.10;99.90
16964;DHT22;8598;50.508;10.436;2023-02-24T02:56:05;6.10;99.90
16964;DHT22;8598;50.508;10.436;2023-02-24T02:58:36;6.10;99.90
16964;DHT22;8598;50.508;10.436;2023-02-24T03:01:05;6.10;99.90
16964;DHT22;8598;50.508;10.436;2023-02-24T03:03:35;6.10;99.90
16964;DHT22;8598;50.508;10.436;2023-02-24T03:06:09;6.10;99.90
16964;DHT22;8598;50.508;10.436;2023-02-24T03:08:39;6.10;99.90
16964;DHT22;8598;50.508;10.436;2023-02-24T03:11:11;6.10;99.90
16964;DHT22;8598;50.508;10.436;2023-02-24T03:13:41;6.10;99.90
16964;DHT22;8598;50.508;10.436;2023-02-24T03:16:12;6.10;99.90
16964;DHT22;8598;50.508;10.436;2023-02-24T03:18:44;6.10;99.90
16964;DHT22;8598;50.508;10.436;2023-02-24T03:21:20;6.10;99.90
16964;DHT22;8598;50.508;10.436;2023-02-24T03:23:53;6.10;99.90
16964;DHT22;8598;50.508;10.436;2023-02-24T03:26:23;6.10;99.90
16964;DHT22;8598;50.508;10.436;2023-02-24T03:28:57;6.10;99.90
16964;DHT22;8598;50.508;10.436;2023-02-24T03:31:27;6.10;99.90
16964;DHT22;8598;50.508;10.436;2023-02-24T03:34:00;6.10;99.90
16964;DHT22;8598;50.508;10.436;2023-02-24T03:36:29;6.10;99.90
16964;DHT22;8598;50.508;10.436;2023-02-24T03:38:56;6.00;99.90
16964;DHT22;8598;50.508;10.436;2023-02-24T03:41:28;6.00;99.90
16964;DHT22;8598;50.508;10.436;2023-02-24T03:43:58;6.00;99.90
16964;DHT22;8598;50.508;10.436;2023-02-24T03:46:25;6.00;99.90
16964;DHT22;8598;50.508;10.436;2023-02-24T03:48:57;6.00;99.90
16964;DHT22;8598;50.508;10.436;2023-02-24T03:51:24;6.00;99.90
16964;DHT22;8598;50.508;10.436;2023-02-24T03:54:02;6.00;99.90
16964;DHT22;8598;50.508;10.436;2023-02-24T03:56:45;5.90;99.90
16964;DHT22;8598;50.508;10.436;2023-02-24T03:59:20;5.90;99.90
16964;DHT22;8598;50.508;10.436;2023-02-24T04:01:52;5.90;99.90
16964;DHT22;8598;50.508;10.436;2023-02-24T04:04:25;5.90;99.90
16964;DHT22;8598;50.508;10.436;2023-02-24T04:06:56;5.80;99.90
16964;DHT22;8598;50.508;10.436;2023-02-24T04:09:33;5.80;99.90
16964;DHT22;8598;50.508;10.436;2023-02-24T04:12:07;5.80;99.90
16964;DHT22;8598;50.508;10.436;2023-02-24T04:14:43;5.80;99.90
16964;DHT22;8598;50.508;10.436;2023-02-24T04:17:16;5.80;99.90
16964;DHT22;8598;50.508;10.436;2023-02-24T04:19:46;5.80;99.90
16964;DHT22;8598;50.508;10.436;2023-02-24T04:22:16;5.80;99.90
16964;DHT22;8598;50.508;10.436;2023-02-24T04:24:47;5.70;99.90
16964;DHT22;8598;50.508;10.436;2023-02-24T04:27:16;5.70;99.90
16964;DHT22;8598;50.508;10.436;2023-02-24T04:29:47;5.70;99.90
16964;DHT22;8598;50.508;10.436;2023-02-24T04:32:18;5.70;99.90
16964;DHT22;8598;50.508;10.436;2023-02-24T04:34:46;5.60;99.90
16964;DHT22;8598;50.508;10.436;2023-02-24T04:37:13;5.60;99.90
16964;DHT22;8598;50.508;10.436;2023-02-24T04:39:40;5.60;99.90
16964;DHT22;8598;50.508;10.436;2023-02-24T04:42:08;5.60;99.90
16964;DHT22;8598;50.508;10.436;2023-02-24T04:44:35;5.60;99.90
16964;DHT22;8598;50.508;10.436;2023-02-24T04:47:01;5.60;99.90
16964;DHT22;8598;50.508;10.436;2023-02-24T04:49:29;5.60;99.90
16964;DHT22;8598;50.508;10.436;2023-02-24T04:51:55;5.70;99.90
16964;DHT22;8598;50.508;10.436;2023-02-24T04:54:22;5.60;99.90
16964;DHT22;8598;50.508;10.436;2023-02-24T04:56:50;5.60;99.90
16964;DHT22;8598;50.508;10.436;2023-02-24T04:59:19;5.70;99.90
16964;DHT22;8598;50.508;10.436;2023-02-24T05:01:46;5.60;99.90
16964;DHT22;8598;50.508;10.436;2023-02-24T05:04:16;5.60;99.90
16964;DHT22;8598;50.508;10.436;2023-02-24T05:06:43;5.60;99.90
16964;DHT22;8598;50.508;10.436;2023-02-24T05:09:10;5.50;99.90
16964;DHT22;8598;50.508;10.436;2023-02-24T05:11:40;5.50;99.90
16964;DHT22;8598;50.508;10.436;2023-02-24T05:14:09;5.50;99.90
16964;DHT22;8598;50.508;10.436;2023-02-24T05:16:40;5.50;99.90
16964;DHT22;8598;50.508;10.436;2023-02-24T05:19:08;5.50;99.90
16964;DHT22;8598;50.508;10.436;2023-02-24T05:21:52;5.50;99.90
16964;DHT22;8598;50.508;10.436;2023-02-24T05:24:22;5.50;99.90
16964;DHT22;8598;50.508;10.436;2023-02-24T05:26:50;5.50;99.90
16964;DHT22;8598;50.508;10.436;2023-02-24T05:29:23;5.50;99.90
16964;DHT22;8598;50.508;10.436;2023-02-24T05:31:52;5.40;99.90
16964;DHT22;8598;50.508;10.436;2023-02-24T05:34:20;5.50;99.90
16964;DHT22;8598;50.508;10.436;2023-02-24T05:36:48;5.50;99.90
16964;DHT22;8598;50.508;10.436;2023-02-24T05:39:16;5.40;99.90
16964;DHT22;8598;50.508;10.436;2023-02-24T05:41:45;5.40;99.90
16964;DHT22;8598;50.508;10.436;2023-02-24T05:44:14;5.40;99.90
16964;DHT22;8598;50.508;10.436;2023-02-24T05:46:44;5.40;99.90
16964;DHT22;8598;50.508;10.436;2023-02-24T05:49:15;5.30;99.90
16964;DHT22;8598;50.508;10.436;2023-02-24T05:51:48;5.30;99.90
16964;DHT22;8598;50.508;10.436;2023-02-24T05:54:22;5.30;99.90
16964;DHT22;8598;50.508;10.436;2023-02-24T05:56:50;5.30;99.90
16964;DHT22;8598;50.508;10.436;2023-02-24T05:59:17;5.60;99.90
16964;DHT22;8598;50.508;10.436;2023-02-24T06:01:46;5.20;99.90
16964;DHT22;8598;50.508;10.436;2023-02-24T06:04:15;5.20;99.90
16964;DHT22;8598;50.508;10.436;2023-02-24T06:06:52;5.20;99.90
16964;DHT22;8598;50.508;10.436;2023-02-24T06:09:19;5.20;99.90
16964;DHT22;8598;50.508;10.436;2023-02-24T06:11:48;5.20;99.90
16964;DHT22;8598;50.508;10.436;2023-02-24T06:14:15;5.20;99.90
16964;DHT22;8598;50.508;10.436;2023-02-24T06:16:42;5.30;99.90
16964;DHT22;8598;50.508;10.436;2023-02-24T06:19:10;5.20;99.90
16964;DHT22;8598;50.508;10.436;2023-02-24T06:21:40;5.20;99.90
16964;DHT22;8598;50.508;10.436;2023-02-24T06:24:10;5.20;99.90
16964;DHT22;8598;50.508;10.436;2023-02-24T06:26:39;5.20;99.90
16964;DHT22;8598;50.508;10.436;2023-02-24T06:29:10;5.20;99.90
16964;DHT22;8598;50.508;10.436;2023-02-24T06:31:37;5.20;99.90
16964;DHT22;8598;50.508;10.436;2023-02-24T06:34:04;5.20;99.90
16964;DHT22;8598;50.508;10.436;2023-02-24T06:36:30;5.20;99.90
16964;DHT22;8598;50.508;10.436;2023-02-24T06:38:58;5.20;99.90
16964;DHT22;8598;50.508;10.436;2023-02-24T06:41:25;5.20;99.90
16964;DHT22;8598;50.508;10.436;2023-02-24T06:43:54;5.30;99.90
16964;DHT22;8598;50.508;10.436;2023-02-24T06:46:20;5.20;99.90
16964;DHT22;8598;50.508;10.436;2023-02-24T06:48:47;5.20;99.90
16964;DHT22;8598;50.508;10.436;2023-02-24T06:51:15;5.30;99.90
16964;DHT22;8598;50.508;10.436;2023-02-24T06:53:42;5.30;99.90
16964;DHT22;8598;50.508;10.436;2023-02-24T06:56:11;5.40;99.90
16964;DHT22;8598;50.508;10.436;2023-02-24T06:58:43;5.40;99.90
16964;DHT22;8598;50.508;10.436;2023-02-24T07:01:11;5.50;99.90
16964;DHT22;8598;50.508;10.436;2023-02-24T07:03:38;5.50;99.90
16964;DHT22;8598;50.508;10.436;2023-02-24T07:06:11;5.50;99.90
16964;DHT22;8598;50.508;10.436;2023-02-24T07:08:46;5.50;99.90
16964;DHT22;8598;50.508;10.436;2023-02-24T07:11:14;5.50;99.90
16964;DHT22;8598;50.508;10.436;2023-02-24T07:13:44;5.50;99.90
16964;DHT22;8598;50.508;10.436;2023-02-24T07:16:11;5.60;99.90
16964;DHT22;8598;50.508;10.436;2023-02-24T07:18:41;5.50;99.90
16964;DHT22;8598;50.508;10.436;2023-02-24T07:21:08;5.50;99.90
16964;DHT22;8598;50.508;10.436;2023-02-24T07:23:37;5.60;99.90
16964;DHT22;8598;50.508;10.436;2023-02-24T07:26:09;5.60;99.90
16964;DHT22;8598;50.508;10.436;2023-02-24T07:28:37;5.70;99.90
16964;DHT22;8598;50.508;10.436;2023-02-24T07:31:05;5.70;99.90
16964;DHT22;8598;50.508;10.436;2023-02-24T07:33:34;5.70;99.90
16964;DHT22;8598;50.508;10.436;2023-02-24T07:36:02;5.70;99.90
16964;DHT22;8598;50.508;10.436;2023-02-24T07:38:34;5.70;99.90
16964;DHT22;8598;50.508;10.436;2023-02-24T07:41:00;5.80;99.90
16964;DHT22;8598;50.508;10.436;2023-02-24T07:43:27;5.80;99.90
16964;DHT22;8598;50.508;10.436;2023-02-24T07:45:56;6.00;99.90
16964;DHT22;8598;50.508;10.436;2023-02-24T07:48:22;6.00;99.90
16964;DHT22;8598;50.508;10.436;2023-02-24T07:50:50;6.10;99.90
16964;DHT22;8598;50.508;10.436;2023-02-24T07:53:17;6.20;99.90
16964;DHT22;8598;50.508;10.436;2023-02-24T07:55:44;6.20;99.90
16964;DHT22;8598;50.508;10.436;2023-02-24T07:58:11;6.30;99.90
16964;DHT22;8598;50.508;10.436;2023-02-24T08:00:37;6.30;99.90
16964;DHT22;8598;50.508;10.436;2023-02-24T08:03:25;6.40;99.90
16964;DHT22;8598;50.508;10.436;2023-02-24T08:05:55;6.40;99.90
16964;DHT22;8598;50.508;10.436;2023-02-24T08:08:24;6.40;99.90
16964;DHT22;8598;50.508;10.436;2023-02-24T08:10:51;6.40;99.90
16964;DHT22;8598;50.508;10.436;2023-02-24T08:13:28;6.40;99.90
16964;DHT22;8598;50.508;10.436;2023-02-24T08:16:04;6.40;99.90
16964;DHT22;8598;50.508;10.436;2023-02-24T08:18:32;6.40;99.90
16964;DHT22;8598;50.508;10.436;2023-02-24T08:21:02;6.40;99.90
16964;DHT22;8598;50.508;10.436;2023-02-24T08:23:29;6.40;99.90
16964;DHT22;8598;50.508;10.436;2023-02-24T08:26:01;6.30;99.90
16964;DHT22;8598;50.508;10.436;2023-02-24T08:28:27;6.30;99.90
16964;DHT22;8598;50.508;10.436;2023-02-24T08:30:54;6.30;99.90
16964;DHT22;8598;50.508;10.436;2023-02-24T08:33:21;6.40;99.90
16964;DHT22;8598;50.508;10.436;2023-02-24T08:35:51;6.50;99.90
16964;DHT22;8598;50.508;10.436;2023-02-24T08:38:25;6.50;99.90
16964;DHT22;8598;50.508;10.436;2023-02-24T08:40:53;6.50;99.90
16964;DHT22;8598;50.508;10.436;2023-02-24T08:43:26;6.60;99.90
16964;DHT22;8598;50.508;10.436;2023-02-24T08:46:01;6.70;99.90
16964;DHT22;8598;50.508;10.436;2023-02-24T08:48:31;6.70;99.90
16964;DHT22;8598;50.508;10.436;2023-02-24T08:51:06;7.10;99.90
16964;DHT22;8598;50.508;10.436;2023-02-24T08:53:33;6.80;99.90
16964;DHT22;8598;50.508;10.436;2023-02-24T08:56:05;6.90;99.90
16964;DHT22;8598;50.508;10.436;2023-02-24T08:58:36;7.00;99.90
16964;DHT22;8598;50.508;10.436;2023-02-24T09:01:09;6.90;99.90
16964;DHT22;8598;50.508;10.436;2023-02-24T09:03:43;7.00;99.90
16964;DHT22;8598;50.508;10.436;2023-02-24T09:06:15;7.10;99.90
16964;DHT22;8598;50.508;10.436;2023-02-24T09:08:44;7.10;99.90
16964;DHT22;8598;50.508;10.436;2023-02-24T09:11:12;7.10;99.90
16964;DHT22;8598;50.508;10.436;2023-02-24T09:13:42;7.10;99.90
16964;DHT22;8598;50.508;10.436;2023-02-24T09:16:17;6.70;99.90
16964;DHT22;8598;50.508;10.436;2023-02-24T09:18:44;6.50;99.90
16964;DHT22;8598;50.508;10.436;2023-02-24T09:21:32;6.30;99.90
16964;DHT22;8598;50.508;10.436;2023-02-24T09:24:24;6.20;99.90
16964;DHT22;8598;50.508;10.436;2023-02-24T09:26:52;5.90;99.90
16964;DHT22;8598;50.508;10.436;2023-02-24T09:29:23;5.80;99.90
16964;DHT22;8598;50.508;10.436;2023-02-24T09:31:59;5.60;99.90
16964;DHT22;8598;50.508;10.436;2023-02-24T09:34:30;5.50;99.90
16964;DHT22;8598;50.508;10.436;2023-02-24T09:36:58;5.60;99.90
16964;DHT22;8598;50.508;10.436;2023-02-24T09:39:29;5.80;99.90
16964;DHT22;8598;50.508;10.436;2023-02-24T09:42:18;6.00;99.90
16964;DHT22;8598;50.508;10.436;2023-02-24T09:45:15;6.00;99.90
16964;DHT22;8598;50.508;10.436;2023-02-24T09:47:58;6.00;99.90
16964;DHT22;8598;50.508;10.436;2023-02-24T09:50:37;6.20;99.90
16964;DHT22;8598;50.508;10.436;2023-02-24T09:53:15;6.40;99.90
16964;DHT22;8598;50.508;10.436;2023-02-24T09:55:48;6.50;99.90
16964;DHT22;8598;50.508;10.436;2023-02-24T09:58:38;6.50;99.90
16964;DHT22;8598;50.508;10.436;2023-02-24T10:01:30;6.60;99.90
16964;DHT22;8598;50.508;10.436;2023-02-24T10:04:02;6.40;99.90
16964;DHT22;8598;50.508;10.436;2023-02-24T10:06:38;6.50;99.90
16964;DHT22;8598;50.508;10.436;2023-02-24T10:09:13;6.60;99.90
16964;DHT22;8598;50.508;10.436;2023-02-24T10:11:47;6.70;99.90
16964;DHT22;8598;50.508;10.436;2023-02-24T10:14:24;6.90;99.90
16964;DHT22;8598;50.508;10.436;2023-02-24T10:16:53;7.00;99.90
16964;DHT22;8598;50.508;10.436;2023-02-24T10:19:46;7.00;99.90
16964;DHT22;8598;50.508;10.436;2023-02-24T10:22:23;7.30;99.90
16964;DHT22;8598;50.508;10.436;2023-02-24T10:25:02;7.50;99.90
16964;DHT22;8598;50.508;10.436;2023-02-24T10:27:42;7.90;99.90
16964;DHT22;8598;50.508;10.436;2023-02-24T10:30:29;8.00;99.90
16964;DHT22;8598;50.508;10.436;2023-02-24T10:33:17;8.30;99.90
16964;DHT22;8598;50.508;10.436;2023-02-24T10:35:45;8.60;99.90
16964;DHT22;8598;50.508;10.436;2023-02-24T10:38:12;8.70;99.90
16964;DHT22;8598;50.508;10.436;2023-02-24T10:40:48;8.80;99.90
16964;DHT22;8598;50.508;10.436;2023-02-24T10:43:22;8.90;99.90
16964;DHT22;8598;50.508;10.436;2023-02-24T10:45:55;9.00;99.90
16964;DHT22;8598;50.508;10.436;2023-02-24T10:48:31;9.20;99.90
16964;DHT22;8598;50.508;10.436;2023-02-24T10:51:08;9.40;99.90
16964;DHT22;8598;50.508;10.436;2023-02-24T10:53:36;9.30;99.90
16964;DHT22;8598;50.508;10.436;2023-02-24T10:56:06;9.00;99.90
16964;DHT22;8598;50.508;10.436;2023-02-24T10:58:59;8.70;99.90
16964;DHT22;8598;50.508;10.436;2023-02-24T11:01:50;8.60;99.90
16964;DHT22;8598;50.508;10.436;2023-02-24T11:04:30;8.60;99.90
16964;DHT22;8598;50.508;10.436;2023-02-24T11:07:12;8.60;99.90
16964;DHT22;8598;50.508;10.436;2023-02-24T11:10:00;8.50;99.90
16964;DHT22;8598;50.508;10.436;2023-02-24T11:12:37;8.50;99.90
16964;DHT22;8598;50.508;10.436;2023-02-24T11:15:29;8.40;99.90
16964;DHT22;8598;50.508;10.436;2023-02-24T11:18:17;8.20;99.90
16964;DHT22;8598;50.508;10.436;2023-02-24T11:20:46;8.10;99.90
16964;DHT22;8598;50.508;10.436;2023-02-24T11:23:17;8.30;99.90
16964;DHT22;8598;50.508;10.436;2023-02-24T11:25:47;8.50;99.90
16964;DHT22;8598;50.508;10.436;2023-02-24T11:28:30;8.70;99.90
16964;DHT22;8598;50.508;10.436;2023-02-24T11:31:05;9.00;99.90
16964;DHT22;8598;50.508;10.436;2023-02-24T11:33:39;9.10;99.90
16964;DHT22;8598;50.508;10.436;2023-02-24T11:36:13;9.10;99.90
16964;DHT22;8598;50.508;10.436;2023-02-24T11:38:45;9.20;99.90
16964;DHT22;8598;50.508;10.436;2023-02-24T11:41:19;9.10;99.90
16964;DHT22;8598;50.508;10.436;2023-02-24T11:43:56;8.80;99.90
16964;DHT22;8598;50.508;10.436;2023-02-24T11:46:33;8.80;99.90
16964;DHT22;8598;50.508;10.436;2023-02-24T11:49:03;8.50;99.90
16964;DHT22;8598;50.508;10.436;2023-02-24T11:51:35;8.30;99.90
16964;DHT22;8598;50.508;10.436;2023-02-24T11:54:05;8.40;99.90
16964;DHT22;8598;50.508;10.436;2023-02-24T11:56:38;8.40;99.90
16964;DHT22;8598;50.508;10.436;2023-02-24T11:59:11;8.60;99.90
16964;DHT22;8598;50.508;10.436;2023-02-24T12:01:42;8.60;99.90
16964;DHT22;8598;50.508;10.436;2023-02-24T12:04:16;8.50;99.90
16964;DHT22;8598;50.508;10.436;2023-02-24T12:06:51;8.50;99.90
16964;DHT22;8598;50.508;10.436;2023-02-24T12:09:24;8.80;99.90
16964;DHT22;8598;50.508;10.436;2023-02-24T12:11:53;8.80;99.90
16964;DHT22;8598;50.508;10.436;2023-02-24T12:14:31;8.80;99.90
16964;DHT22;8598;50.508;10.436;2023-02-24T12:17:03;8.60;99.90
16964;DHT22;8598;50.508;10.436;2023-02-24T12:19:41;8.20;99.90
16964;DHT22;8598;50.508;10.436;2023-02-24T12:22:16;8.10;99.90
16964;DHT22;8598;50.508;10.436;2023-02-24T12:24:47;8.10;99.90
16964;DHT22;8598;50.508;10.436;2023-02-24T12:27:25;8.10;99.90
16964;DHT22;8598;50.508;10.436;2023-02-24T12:30:06;8.10;99.90
16964;DHT22;8598;50.508;10.436;2023-02-24T12:32:59;8.00;99.90
16964;DHT22;8598;50.508;10.436;2023-02-24T12:35:32;8.10;99.90
16964;DHT22;8598;50.508;10.436;2023-02-24T12:38:12;8.10;99.90
16964;DHT22;8598;50.508;10.436;2023-02-24T12:40:43;8.10;99.90
16964;DHT22;8598;50.508;10.436;2023-02-24T12:43:21;8.20;99.90
16964;DHT22;8598;50.508;10.436;2023-02-24T12:46:00;8.10;99.90
16964;DHT22;8598;50.508;10.436;2023-02-24T12:48:49;8.20;99.90
16964;DHT22;8598;50.508;10.436;2023-02-24T12:51:26;8.10;99.90
16964;DHT22;8598;50.508;10.436;2023-02-24T12:53:59;8.00;99.90
16964;DHT22;8598;50.508;10.436;2023-02-24T12:56:38;7.90;99.90
16964;DHT22;8598;50.508;10.436;2023-02-24T12:59:08;8.00;99.90
16964;DHT22;8598;50.508;10.436;2023-02-24T13:01:44;8.10;99.90
16964;DHT22;8598;50.508;10.436;2023-02-24T13:04:24;8.20;99.90
16964;DHT22;8598;50.508;10.436;2023-02-24T13:07:00;8.20;99.90
16964;DHT22;8598;50.508;10.436;2023-02-24T13:09:39;8.10;99.90
16964;DHT22;8598;50.508;10.436;2023-02-24T13:12:13;8.10;99.90
16964;DHT22;8598;50.508;10.436;2023-02-24T13:14:42;8.20;99.90
16964;DHT22;8598;50.508;10.436;2023-02-24T13:17:20;8.30;99.90
16964;DHT22;8598;50.508;10.436;2023-02-24T13:19:48;8.30;99.90
16964;DHT22;8598;50.508;10.436;2023-02-24T13:22:29;8.20;99.90
16964;DHT22;8598;50.508;10.436;2023-02-24T13:25:02;8.10;99.90
16964;DHT22;8598;50.508;10.436;2023-02-24T13:27:37;7.90;99.90
16964;DHT22;8598;50.508;10.436;2023-02-24T13:30:23;7.90;99.90
16964;DHT22;8598;50.508;10.436;2023-02-24T13:33:01;7.70;99.90
16964;DHT22;8598;50.508;10.436;2023-02-24T13:35:30;7.50;99.90
16964;DHT22;8598;50.508;10.436;2023-02-24T13:38:08;7.60;99.90
16964;DHT22;8598;50.508;10.436;2023-02-24T13:40:35;7.60;99.90
16964;DHT22;8598;50.508;10.436;2023-02-24T13:43:01;7.60;99.90
16964;DHT22;8598;50.508;10.436;2023-02-24T13:45:30;7.50;99.90
16964;DHT22;8598;50.508;10.436;2023-02-24T13:48:11;7.40;99.90
16964;DHT22;8598;50.508;10.436;2023-02-24T13:50:55;7.50;99.90
16964;DHT22;8598;50.508;10.436;2023-02-24T13:53:38;7.50;99.90
16964;DHT22;8598;50.508;10.436;2023-02-24T13:56:20;7.40;99.90
16964;DHT22;8598;50.508;10.436;2023-02-24T14:02:12;7.40;99.90
16964;DHT22;8598;50.508;10.436;2023-02-24T14:04:47;7.20;99.90
16964;DHT22;8598;50.508;10.436;2023-02-24T14:07:20;7.10;99.90
16964;DHT22;8598;50.508;10.436;2023-02-24T14:09:51;7.10;99.90
16964;DHT22;8598;50.508;10.436;2023-02-24T14:12:22;7.10;99.90
16964;DHT22;8598;50.508;10.436;2023-02-24T14:14:50;7.20;99.90
16964;DHT22;8598;50.508;10.436;2023-02-24T14:17:22;7.20;99.90
16964;DHT22;8598;50.508;10.436;2023-02-24T14:19:54;7.20;99.90
16964;DHT22;8598;50.508;10.436;2023-02-24T14:22:22;7.20;99.90
16964;DHT22;8598;50.508;10.436;2023-02-24T14:24:48;7.20;99.90
16964;DHT22;8598;50.508;10.436;2023-02-24T14:27:27;7.10;99.90
16964;DHT22;8598;50.508;10.436;2023-02-24T14:29:53;7.10;99.90
16964;DHT22;8598;50.508;10.436;2023-02-24T14:32:22;7.00;99.90
16964;DHT22;8598;50.508;10.436;2023-02-24T14:34:49;7.00;99.90
16964;DHT22;8598;50.508;10.436;2023-02-24T14:37:21;6.90;99.90
16964;DHT22;8598;50.508;10.436;2023-02-24T14:39:50;6.90;99.90
16964;DHT22;8598;50.508;10.436;2023-02-24T14:42:18;6.80;99.90
16964;DHT22;8598;50.508;10.436;2023-02-24T14:44:46;6.70;99.90
16964;DHT22;8598;50.508;10.436;2023-02-24T14:47:15;6.70;99.90
16964;DHT22;8598;50.508;10.436;2023-02-24T14:49:51;6.80;99.90
16964;DHT22;8598;50.508;10.436;2023-02-24T14:52:29;6.70;99.90
16964;DHT22;8598;50.508;10.436;2023-02-24T14:55:02;6.70;99.90
16964;DHT22;8598;50.508;10.436;2023-02-24T14:57:34;6.60;99.90
16964;DHT22;8598;50.508;10.436;2023-02-24T15:00:04;6.50;99.90
16964;DHT22;8598;50.508;10.436;2023-02-24T15:02:38;6.40;99.90
16964;DHT22;8598;50.508;10.436;2023-02-24T15:05:08;6.20;99.90
16964;DHT22;8598;50.508;10.436;2023-02-24T15:07:37;5.90;99.90
16964;DHT22;8598;50.508;10.436;2023-02-24T15:10:06;5.70;99.90
16964;DHT22;8598;50.508;10.436;2023-02-24T15:12:34;5.50;99.90
16964;DHT22;8598;50.508;10.436;2023-02-24T15:15:06;5.40;99.90
16964;DHT22;8598;50.508;10.436;2023-02-24T15:17:38;5.30;99.90
16964;DHT22;8598;50.508;10.436;2023-02-24T15:20:24;5.10;99.90
16964;DHT22;8598;50.508;10.436;2023-02-24T15:22:52;5.10;99.90
16964;DHT22;8598;50.508;10.436;2023-02-24T15:25:21;4.90;99.90
16964;DHT22;8598;50.508;10.436;2023-02-24T15:27:50;4.80;99.90
16964;DHT22;8598;50.508;10.436;2023-02-24T15:30:29;4.70;99.90
16964;DHT22;8598;50.508;10.436;2023-02-24T15:33:02;4.50;99.90
16964;DHT22;8598;50.508;10.436;2023-02-24T15:35:30;4.30;99.90
16964;DHT22;8598;50.508;10.436;2023-02-24T15:38:00;4.20;99.90
16964;DHT22;8598;50.508;10.436;2023-02-24T15:40:27;4.10;99.90
16964;DHT22;8598;50.508;10.436;2023-02-24T15:42:56;4.00;99.90
16964;DHT22;8598;50.508;10.436;2023-02-24T15:45:27;4.00;99.90
16964;DHT22;8598;50.508;10.436;2023-02-24T15:47:55;3.90;99.90
16964;DHT22;8598;50.508;10.436;2023-02-24T15:50:23;3.70;99.90
16964;DHT22;8598;50.508;10.436;2023-02-24T15:52:50;3.80;99.90
16964;DHT22;8598;50.508;10.436;2023-02-24T15:55:19;3.70;99.90
16964;DHT22;8598;50.508;10.436;2023-02-24T15:57:47;3.70;99.90
16964;DHT22;8598;50.508;10.436;2023-02-24T16:00:21;3.60;99.90
16964;DHT22;8598;50.508;10.436;2023-02-24T16:02:48;3.50;99.90
16964;DHT22;8598;50.508;10.436;2023-02-24T16:05:15;3.60;99.90
16964;DHT22;8598;50.508;10.436;2023-02-24T16:07:43;3.50;99.90
16964;DHT22;8598;50.508;10.436;2023-02-24T16:10:18;3.50;99.90
16964;DHT22;8598;50.508;10.436;2023-02-24T16:12:48;3.50;99.90
16964;DHT22;8598;50.508;10.436;2023-02-24T16:15:19;3.40;99.90
16964;DHT22;8598;50.508;10.436;2023-02-24T16:17:46;3.30;99.90
16964;DHT22;8598;50.508;10.436;2023-02-24T16:20:16;3.30;99.90
16964;DHT22;8598;50.508;10.436;2023-02-24T16:22:43;3.20;99.90